sensor_id;sensor_type;location;lat;lon;timestamp;pressure;altitude;pressure_sealevel;temperature;humidity
3654;BME280;70277;54.302;10.064;2023-06-10T00:00:07;101824.84;;;13.40;75.75
3654;BME280;70277;54.302;10.064;2023-06-10T00:02:34;101823.97;;;13.39;76.10
3654;BME280;70277;54.302;10.064;2023-06-10T00:05:00;101823.00;;;13.46;75.98
3654;BME280;70277;54.302;10.064;2023-06-10T00:07:27;101824.56;;;13.41;75.84
3654;BME280;70277;54.302;10.064;2023-06-10T00:09:53;101818.06;;;13.42;75.53
3654;BME280;70277;54.302;10.064;2023-06-10T00:12:21;101820.88;;;13.48;75.59
3654;BME280;70277;54.302;10.064;2023-06-10T00:14:47;101817.09;;;13.49;75.06
3654;BME280;70277;54.302;10.064;2023-06-10T00:17:16;101824.91;;;13.45;75.41
3654;BME280;70277;54.302;10.064;2023-06-10T00:19:43;101823.31;;;13.32;76.28
3654;BME280;70277;54.302;10.064;2023-06-10T00:22:10;101821.41;;;13.33;75.70
3654;BME280;70277;54.302;10.064;2023-06-10T00:24:37;101818.81;;;13.26;75.89
3654;BME280;70277;54.302;10.064;2023-06-10T00:27:04;101814.81;;;13.17;76.38
3654;BME280;70277;54.302;10.064;2023-06-10T00:29:31;101814.00;;;13.16;76.68
3654;BME280;70277;54.302;10.064;2023-06-10T00:31:58;101814.69;;;13.12;76.65
3654;BME280;70277;54.302;10.064;2023-06-10T00:34:24;101822.38;;;13.15;76.16
3654;BME280;70277;54.302;10.064;2023-06-10T00:36:51;101822.72;;;13.18;76.43
3654;BME280;70277;54.302;10.064;2023-06-10T00:39:17;101819.06;;;13.13;76.14
3654;BME280;70277;54.302;10.064;2023-06-10T00:41:44;101825.09;;;13.15;76.30
3654;BME280;70277;54.302;10.064;2023-06-10T00:44:10;101822.84;;;13.12;76.40
3654;BME280;70277;54.302;10.064;2023-06-10T00:46:37;101823.19;;;13.15;76.16
3654;BME280;70277;54.302;10.064;2023-06-10T00:49:04;101828.41;;;13.17;76.37
3654;BME280;70277;54.302;10.064;2023-06-10T00:51:30;101820.25;;;13.17;76.40
3654;BME280;70277;54.302;10.064;2023-06-10T00:53:57;101818.22;;;13.12;76.05
3654;BME280;70277;54.302;10.064;2023-06-10T00:56:24;101819.53;;;13.10;76.52
3654;BME280;70277;54.302;10.064;2023-06-10T00:58:51;101819.53;;;13.10;76.46
3654;BME280;70277;54.302;10.064;2023-06-10T01:01:18;101815.41;;;13.07;76.36
3654;BME280;70277;54.302;10.064;2023-06-10T01:03:46;101813.13;;;13.16;76.10
3654;BME280;70277;54.302;10.064;2023-06-10T01:06:33;101813.38;;;13.14;76.14
3654;BME280;70277;54.302;10.064;2023-06-10T01:09:15;101815.03;;;13.15;76.10
3654;BME280;70277;54.302;10.064;2023-06-10T01:12:03;101817.41;;;13.12;75.98
3654;BME280;70277;54.302;10.064;2023-06-10T01:14:38;101811.50;;;13.15;75.21
3654;BME280;70277;54.302;10.064;2023-06-10T01:17:07;101807.03;;;13.09;75.29
3654;BME280;70277;54.302;10.064;2023-06-10T01:19:36;101813.53;;;13.08;76.17
3654;BME280;70277;54.302;10.064;2023-06-10T01:22:03;101810.91;;;13.13;75.24
3654;BME280;70277;54.302;10.064;2023-06-10T01:24:30;101813.63;;;13.01;75.26
3654;BME280;70277;54.302;10.064;2023-06-10T01:27:01;101816.13;;;13.03;75.69
3654;BME280;70277;54.302;10.064;2023-06-10T01:29:43;101815.78;;;13.11;74.41
3654;BME280;70277;54.302;10.064;2023-06-10T01:32:23;101811.38;;;13.10;74.63
3654;BME280;70277;54.302;10.064;2023-06-10T01:34:54;101820.50;;;13.04;74.44
3654;BME280;70277;54.302;10.064;2023-06-10T01:37:23;101821.22;;;12.99;74.84
3654;BME280;70277;54.302;10.064;2023-06-10T01:39:51;101824.28;;;13.03;74.27
3654;BME280;70277;54.302;10.064;2023-06-10T01:42:18;101829.03;;;12.95;74.20
3654;BME280;70277;54.302;10.064;2023-06-10T01:44:44;101819.31;;;13.00;74.14
3654;BME280;70277;54.302;10.064;2023-06-10T01:47:11;101816.84;;;12.98;74.12
3654;BME280;70277;54.302;10.064;2023-06-10T01:49:37;101817.69;;;12.98;73.66
3654;BME280;70277;54.302;10.064;2023-06-10T01:52:04;101809.63;;;13.04;73.45
3654;BME280;70277;54.302;10.064;2023-06-10T01:54:31;101809.63;;;13.04;73.77
3654;BME280;70277;54.302;10.064;2023-06-10T01:56:57;101803.03;;;13.00;73.97
3654;BME280;70277;54.302;10.064;2023-06-10T01:59:24;101811.88;;;12.95;73.69
3654;BME280;70277;54.302;10.064;2023-06-10T02:01:50;101805.03;;;12.92;73.56
3654;BME280;70277;54.302;10.064;2023-06-10T02:04:17;101804.47;;;12.90;73.95
3654;BME280;70277;54.302;10.064;2023-06-10T02:06:43;101804.56;;;12.95;73.82
3654;BME280;70277;54.302;10.064;2023-06-10T02:09:11;101804.66;;;13.01;73.20
3654;BME280;70277;54.302;10.064;2023-06-10T02:11:37;101804.31;;;12.97;73.09
3654;BME280;70277;54.302;10.064;2023-06-10T02:14:04;101809.41;;;12.93;73.01
3654;BME280;70277;54.302;10.064;2023-06-10T02:16:30;101817.69;;;12.98;72.88
3654;BME280;70277;54.302;10.064;2023-06-10T02:18:57;101815.31;;;12.90;73.14
3654;BME280;70277;54.302;10.064;2023-06-10T02:21:24;101818.19;;;12.84;73.43
3654;BME280;70277;54.302;10.064;2023-06-10T02:23:51;101817.31;;;12.83;73.15
3654;BME280;70277;54.302;10.064;2023-06-10T02:26:17;101825.25;;;12.85;73.50
3654;BME280;70277;54.302;10.064;2023-06-10T02:28:44;101828.44;;;12.82;73.46
3654;BME280;70277;54.302;10.064;2023-06-10T02:31:10;101825.94;;;12.80;73.79
3654;BME280;70277;54.302;10.064;2023-06-10T02:33:39;101819.94;;;12.78;73.43
3654;BME280;70277;54.302;10.064;2023-06-10T02:36:06;101835.16;;;12.79;73.02
3654;BME280;70277;54.302;10.064;2023-06-10T02:38:33;101826.06;;;12.85;73.30
3654;BME280;70277;54.302;10.064;2023-06-10T02:40:59;101830.44;;;12.86;72.98
3654;BME280;70277;54.302;10.064;2023-06-10T02:43:26;101830.69;;;12.73;73.45
3654;BME280;70277;54.302;10.064;2023-06-10T02:45:52;101825.84;;;12.75;73.51
3654;BME280;70277;54.302;10.064;2023-06-10T02:48:19;101835.31;;;12.72;73.46
3654;BME280;70277;54.302;10.064;2023-06-10T02:50:45;101828.44;;;12.70;73.96
3654;BME280;70277;54.302;10.064;2023-06-10T02:53:12;101829.13;;;12.77;73.34
3654;BME280;70277;54.302;10.064;2023-06-10T02:55:39;101825.94;;;12.80;73.08
3654;BME280;70277;54.302;10.064;2023-06-10T02:58:05;101827.25;;;12.78;73.56
3654;BME280;70277;54.302;10.064;2023-06-10T03:00:32;101822.66;;;12.78;73.11
3654;BME280;70277;54.302;10.064;2023-06-10T03:02:59;101823.72;;;12.77;73.08
3654;BME280;70277;54.302;10.064;2023-06-10T03:05:29;101833.28;;;12.80;72.93
3654;BME280;70277;54.302;10.064;2023-06-10T03:07:55;101830.69;;;12.73;73.49
3654;BME280;70277;54.302;10.064;2023-06-10T03:10:22;101825.13;;;12.68;73.28
3654;BME280;70277;54.302;10.064;2023-06-10T03:12:48;101827.38;;;12.71;72.99
3654;BME280;70277;54.302;10.064;2023-06-10T03:15:15;101832.81;;;12.71;73.37
3654;BME280;70277;54.302;10.064;2023-06-10T03:17:42;101827.25;;;12.66;73.61
3654;BME280;70277;54.302;10.064;2023-06-10T03:20:09;101823.16;;;12.75;73.18
3654;BME280;70277;54.302;10.064;2023-06-10T03:22:36;101832.34;;;12.74;73.83
3654;BME280;70277;54.302;10.064;2023-06-10T03:25:05;101823.50;;;12.79;73.11
3654;BME280;70277;54.302;10.064;2023-06-10T03:27:32;101823.34;;;12.85;73.58
3654;BME280;70277;54.302;10.064;2023-06-10T03:29:59;101825.94;;;12.80;73.46
3654;BME280;70277;54.302;10.064;2023-06-10T03:32:26;101834.34;;;12.79;73.73
3654;BME280;70277;54.302;10.064;2023-06-10T03:34:52;101839.19;;;12.88;73.44
3654;BME280;70277;54.302;10.064;2023-06-10T03:37:24;101840.34;;;12.92;73.22
3654;BME280;70277;54.302;10.064;2023-06-10T03:39:51;101833.63;;;12.95;72.74
3654;BME280;70277;54.302;10.064;2023-06-10T03:42:17;101844.59;;;13.00;72.76
3654;BME280;70277;54.302;10.064;2023-06-10T03:44:46;101844.84;;;12.98;72.98
3654;BME280;70277;54.302;10.064;2023-06-10T03:47:13;101848.00;;;13.07;72.54
3654;BME280;70277;54.302;10.064;2023-06-10T03:49:39;101847.91;;;13.14;72.62
3654;BME280;70277;54.302;10.064;2023-06-10T03:52:06;101840.78;;;13.13;72.42
3654;BME280;70277;54.302;10.064;2023-06-10T03:54:33;101842.94;;;13.11;72.96
3654;BME280;70277;54.302;10.064;2023-06-10T03:57:01;101835.47;;;13.18;72.50
3654;BME280;70277;54.302;10.064;2023-06-10T03:59:27;101832.41;;;13.26;72.48
3654;BME280;70277;54.302;10.064;2023-06-10T04:01:54;101834.50;;;13.24;72.20
3654;BME280;70277;54.302;10.064;2023-06-10T04:04:23;101841.19;;;13.28;72.20
3654;BME280;70277;54.302;10.064;2023-06-10T04:06:49;101842.44;;;13.37;71.73
3654;BME280;70277;54.302;10.064;2023-06-10T04:09:17;101841.19;;;13.28;72.84
3654;BME280;70277;54.302;10.064;2023-06-10T04:11:43;101835.81;;;13.33;72.77
3654;BME280;70277;54.302;10.064;2023-06-10T04:14:10;101847.25;;;13.47;72.31
3654;BME280;70277;54.302;10.064;2023-06-10T04:16:36;101839.91;;;13.48;72.56
3654;BME280;70277;54.302;10.064;2023-06-10T04:19:04;101840.50;;;13.50;73.07
3654;BME280;70277;54.302;10.064;2023-06-10T04:21:31;101840.03;;;13.53;73.26
3654;BME280;70277;54.302;10.064;2023-06-10T04:23:59;101840.03;;;13.53;73.62
3654;BME280;70277;54.302;10.064;2023-06-10T04:26:25;101843.31;;;13.67;73.32
3654;BME280;70277;54.302;10.064;2023-06-10T04:28:53;101844.00;;;13.62;73.05
3654;BME280;70277;54.302;10.064;2023-06-10T04:31:20;101850.59;;;13.66;73.47
3654;BME280;70277;54.302;10.064;2023-06-10T04:33:47;101845.16;;;13.66;73.74
3654;BME280;70277;54.302;10.064;2023-06-10T04:36:13;101848.69;;;13.78;73.57
3654;BME280;70277;54.302;10.064;2023-06-10T04:38:40;101856.00;;;13.78;73.36
3654;BME280;70277;54.302;10.064;2023-06-10T04:41:07;101848.69;;;13.78;72.87
3654;BME280;70277;54.302;10.064;2023-06-10T04:43:34;101848.88;;;13.88;72.75
3654;BME280;70277;54.302;10.064;2023-06-10T04:46:00;101862.41;;;14.00;72.76
3654;BME280;70277;54.302;10.064;2023-06-10T04:48:28;101852.94;;;14.03;72.14
3654;BME280;70277;54.302;10.064;2023-06-10T04:50:54;101840.00;;;14.10;72.15
3654;BME280;70277;54.302;10.064;2023-06-10T04:53:21;101847.09;;;14.11;71.99
3654;BME280;70277;54.302;10.064;2023-06-10T04:55:48;101842.66;;;14.22;71.78
3654;BME280;70277;54.302;10.064;2023-06-10T04:58:15;101850.59;;;14.23;71.49
3654;BME280;70277;54.302;10.064;2023-06-10T05:00:41;101846.47;;;14.38;71.68
3654;BME280;70277;54.302;10.064;2023-06-10T05:03:08;101845.63;;;14.37;71.52
3654;BME280;70277;54.302;10.064;2023-06-10T05:05:34;101852.47;;;14.40;71.23
3654;BME280;70277;54.302;10.064;2023-06-10T05:08:01;101848.47;;;14.59;71.18
3654;BME280;70277;54.302;10.064;2023-06-10T05:10:27;101850.09;;;14.60;70.78
3654;BME280;70277;54.302;10.064;2023-06-10T05:12:58;101850.78;;;14.67;70.37
3654;BME280;70277;54.302;10.064;2023-06-10T05:15:24;101844.47;;;14.67;70.39
3654;BME280;70277;54.302;10.064;2023-06-10T05:17:51;101849.19;;;14.71;69.92
3654;BME280;70277;54.302;10.064;2023-06-10T05:20:18;101855.88;;;14.81;69.98
3654;BME280;70277;54.302;10.064;2023-06-10T05:22:44;101849.19;;;15.10;69.63
3654;BME280;70277;54.302;10.064;2023-06-10T05:25:11;101849.13;;;15.05;68.91
3654;BME280;70277;54.302;10.064;2023-06-10T05:27:38;101855.31;;;15.17;69.27
3654;BME280;70277;54.302;10.064;2023-06-10T05:30:06;101844.25;;;15.07;68.96
3654;BME280;70277;54.302;10.064;2023-06-10T05:32:33;101853.81;;;15.10;69.46
3654;BME280;70277;54.302;10.064;2023-06-10T05:35:00;101842.88;;;15.27;68.44
3654;BME280;70277;54.302;10.064;2023-06-10T05:37:27;101843.00;;;15.37;68.36
3654;BME280;70277;54.302;10.064;2023-06-10T05:39:54;101832.75;;;15.49;68.21
3654;BME280;70277;54.302;10.064;2023-06-10T05:42:20;101839.38;;;15.75;66.58
3654;BME280;70277;54.302;10.064;2023-06-10T05:44:47;101837.75;;;16.38;65.81
3654;BME280;70277;54.302;10.064;2023-06-10T05:47:13;101846.56;;;16.46;64.85
3654;BME280;70277;54.302;10.064;2023-06-10T05:49:39;101846.91;;;16.54;64.60
3654;BME280;70277;54.302;10.064;2023-06-10T05:52:06;101824.69;;;16.78;64.45
3654;BME280;70277;54.302;10.064;2023-06-10T05:54:33;101836.41;;;17.26;62.35
3654;BME280;70277;54.302;10.064;2023-06-10T05:56:59;101841.50;;;17.70;60.07
3654;BME280;70277;54.302;10.064;2023-06-10T05:59:26;101844.47;;;17.68;60.25
3654;BME280;70277;54.302;10.064;2023-06-10T06:01:52;101840.88;;;17.42;61.01
3654;BME280;70277;54.302;10.064;2023-06-10T06:04:18;101835.03;;;17.23;61.57
3654;BME280;70277;54.302;10.064;2023-06-10T06:06:45;101841.25;;;17.09;62.26
3654;BME280;70277;54.302;10.064;2023-06-10T06:09:12;101834.22;;;17.23;62.26
3654;BME280;70277;54.302;10.064;2023-06-10T06:11:39;101839.13;;;17.21;61.78
3654;BME280;70277;54.302;10.064;2023-06-10T06:14:05;101836.19;;;17.38;61.21
3654;BME280;70277;54.302;10.064;2023-06-10T06:16:32;101831.16;;;18.03;59.08
3654;BME280;70277;54.302;10.064;2023-06-10T06:18:59;101838.28;;;18.50;58.67
3654;BME280;70277;54.302;10.064;2023-06-10T06:21:26;101844.31;;;18.36;57.78
3654;BME280;70277;54.302;10.064;2023-06-10T06:23:52;101841.56;;;18.01;58.23
3654;BME280;70277;54.302;10.064;2023-06-10T06:26:19;101847.06;;;18.11;57.54
3654;BME280;70277;54.302;10.064;2023-06-10T06:28:45;101841.16;;;17.56;59.18
3654;BME280;70277;54.302;10.064;2023-06-10T06:31:12;101845.88;;;17.76;59.02
3654;BME280;70277;54.302;10.064;2023-06-10T06:33:38;101844.78;;;17.77;58.00
3654;BME280;70277;54.302;10.064;2023-06-10T06:36:05;101850.47;;;17.55;59.49
3654;BME280;70277;54.302;10.064;2023-06-10T06:38:31;101854.34;;;17.69;59.27
3654;BME280;70277;54.302;10.064;2023-06-10T06:40:58;101848.06;;;17.74;58.76
3654;BME280;70277;54.302;10.064;2023-06-10T06:43:29;101835.56;;;17.99;58.79
3654;BME280;70277;54.302;10.064;2023-06-10T06:45:57;101850.88;;;18.10;58.15
3654;BME280;70277;54.302;10.064;2023-06-10T06:48:24;101845.38;;;17.84;58.83
3654;BME280;70277;54.302;10.064;2023-06-10T06:50:50;101839.94;;;18.10;58.97
3654;BME280;70277;54.302;10.064;2023-06-10T06:53:17;101855.81;;;17.92;58.74
3654;BME280;70277;54.302;10.064;2023-06-10T06:55:43;101851.66;;;17.80;59.17
3654;BME280;70277;54.302;10.064;2023-06-10T06:58:10;101848.53;;;17.50;59.64
3654;BME280;70277;54.302;10.064;2023-06-10T07:00:36;101852.66;;;17.53;60.11
3654;BME280;70277;54.302;10.064;2023-06-10T07:03:03;101844.66;;;17.31;60.53
3654;BME280;70277;54.302;10.064;2023-06-10T07:05:30;101847.50;;;17.67;60.28
3654;BME280;70277;54.302;10.064;2023-06-10T07:07:57;101849.50;;;17.92;60.03
3654;BME280;70277;54.302;10.064;2023-06-10T07:10:24;101849.53;;;18.02;59.17
3654;BME280;70277;54.302;10.064;2023-06-10T07:12:51;101848.69;;;17.91;59.73
3654;BME280;70277;54.302;10.064;2023-06-10T07:15:18;101851.44;;;18.07;59.02
3654;BME280;70277;54.302;10.064;2023-06-10T07:17:45;101858.00;;;18.01;59.29
3654;BME280;70277;54.302;10.064;2023-06-10T07:20:12;101862.41;;;18.27;58.53
3654;BME280;70277;54.302;10.064;2023-06-10T07:22:39;101860.75;;;18.62;57.77
3654;BME280;70277;54.302;10.064;2023-06-10T07:25:06;101865.13;;;18.83;57.92
3654;BME280;70277;54.302;10.064;2023-06-10T07:27:33;101862.03;;;19.81;55.15
3654;BME280;70277;54.302;10.064;2023-06-10T07:29:59;101863.47;;;19.73;54.64
3654;BME280;70277;54.302;10.064;2023-06-10T07:32:27;101868.44;;;19.61;55.36
3654;BME280;70277;54.302;10.064;2023-06-10T07:34:54;101867.91;;;19.59;55.10
3654;BME280;70277;54.302;10.064;2023-06-10T07:37:20;101864.69;;;19.46;55.13
3654;BME280;70277;54.302;10.064;2023-06-10T07:39:47;101874.88;;;19.41;55.18
3654;BME280;70277;54.302;10.064;2023-06-10T07:42:13;101873.34;;;19.79;54.31
3654;BME280;70277;54.302;10.064;2023-06-10T07:44:40;101876.50;;;19.96;53.67
3654;BME280;70277;54.302;10.064;2023-06-10T07:47:06;101876.75;;;19.45;54.79
3654;BME280;70277;54.302;10.064;2023-06-10T07:49:33;101880.88;;;19.48;55.40
3654;BME280;70277;54.302;10.064;2023-06-10T07:51:59;101872.41;;;19.34;55.19
3654;BME280;70277;54.302;10.064;2023-06-10T07:54:26;101877.69;;;19.15;55.99
3654;BME280;70277;54.302;10.064;2023-06-10T07:56:55;101884.81;;;19.16;55.63
3654;BME280;70277;54.302;10.064;2023-06-10T07:59:22;101885.47;;;19.73;55.12
3654;BME280;70277;54.302;10.064;2023-06-10T08:01:48;101880.25;;;19.61;54.59
3654;BME280;70277;54.302;10.064;2023-06-10T08:04:15;101884.41;;;19.53;55.10
3654;BME280;70277;54.302;10.064;2023-06-10T08:06:41;101884.81;;;19.21;56.12
3654;BME280;70277;54.302;10.064;2023-06-10T08:09:08;101885.88;;;19.30;55.61
3654;BME280;70277;54.302;10.064;2023-06-10T08:11:34;101881.63;;;19.69;55.53
3654;BME280;70277;54.302;10.064;2023-06-10T08:14:01;101879.97;;;19.73;54.90
3654;BME280;70277;54.302;10.064;2023-06-10T08:16:27;101874.59;;;19.97;54.77
3654;BME280;70277;54.302;10.064;2023-06-10T08:18:54;101869.69;;;19.94;54.78
3654;BME280;70277;54.302;10.064;2023-06-10T08:21:21;101873.44;;;20.42;53.95
3654;BME280;70277;54.302;10.064;2023-06-10T08:23:47;101875.53;;;20.85;52.62
3654;BME280;70277;54.302;10.064;2023-06-10T08:26:14;101881.22;;;20.64;52.15
3654;BME280;70277;54.302;10.064;2023-06-10T08:28:41;101883.72;;;20.27;53.59
3654;BME280;70277;54.302;10.064;2023-06-10T08:31:08;101878.81;;;20.58;52.96
3654;BME280;70277;54.302;10.064;2023-06-10T08:33:34;101880.25;;;20.79;52.34
3654;BME280;70277;54.302;10.064;2023-06-10T08:36:01;101874.25;;;20.43;52.87
3654;BME280;70277;54.302;10.064;2023-06-10T08:38:27;101875.63;;;20.75;52.69
3654;BME280;70277;54.302;10.064;2023-06-10T08:40:56;101880.63;;;21.88;50.65
3654;BME280;70277;54.302;10.064;2023-06-10T08:43:39;101879.50;;;22.45;49.44
3654;BME280;70277;54.302;10.064;2023-06-10T08:46:09;101871.47;;;22.11;48.93
3654;BME280;70277;54.302;10.064;2023-06-10T08:48:41;101872.16;;;21.84;49.49
3654;BME280;70277;54.302;10.064;2023-06-10T08:51:09;101873.69;;;22.09;48.95
3654;BME280;70277;54.302;10.064;2023-06-10T08:53:38;101873.03;;;21.61;50.64
3654;BME280;70277;54.302;10.064;2023-06-10T08:56:09;101875.31;;;21.29;50.61
3654;BME280;70277;54.302;10.064;2023-06-10T08:58:36;101876.75;;;21.70;50.77
3654;BME280;70277;54.302;10.064;2023-06-10T09:01:08;101869.03;;;22.10;49.11
3654;BME280;70277;54.302;10.064;2023-06-10T09:03:37;101860.47;;;21.92;49.47
3654;BME280;70277;54.302;10.064;2023-06-10T09:06:04;101867.31;;;21.76;49.97
3654;BME280;70277;54.302;10.064;2023-06-10T09:08:33;101870.28;;;21.79;50.74
3654;BME280;70277;54.302;10.064;2023-06-10T09:11:01;101867.81;;;22.16;49.80
3654;BME280;70277;54.302;10.064;2023-06-10T09:13:27;101862.19;;;22.73;48.33
3654;BME280;70277;54.302;10.064;2023-06-10T09:15:54;101878.53;;;22.83;47.87
3654;BME280;70277;54.302;10.064;2023-06-10T09:18:23;101869.41;;;22.22;49.32
3654;BME280;70277;54.302;10.064;2023-06-10T09:20:49;101861.41;;;22.01;49.43
3654;BME280;70277;54.302;10.064;2023-06-10T09:23:16;101873.13;;;22.91;48.39
3654;BME280;70277;54.302;10.064;2023-06-10T09:25:43;101867.13;;;23.45;46.48
3654;BME280;70277;54.302;10.064;2023-06-10T09:28:13;101867.72;;;22.40;48.00
3654;BME280;70277;54.302;10.064;2023-06-10T09:30:41;101875.66;;;22.74;48.01
3654;BME280;70277;54.302;10.064;2023-06-10T09:33:14;101866.94;;;23.27;47.30
3654;BME280;70277;54.302;10.064;2023-06-10T09:35:50;101868.91;;;23.41;46.63
3654;BME280;70277;54.302;10.064;2023-06-10T09:38:21;101870.94;;;23.99;44.98
3654;BME280;70277;54.302;10.064;2023-06-10T09:40:49;101865.28;;;24.71;43.47
3654;BME280;70277;54.302;10.064;2023-06-10T09:43:17;101865.56;;;24.61;43.44
3654;BME280;70277;54.302;10.064;2023-06-10T09:45:44;101865.81;;;24.28;44.05
3654;BME280;70277;54.302;10.064;2023-06-10T09:48:13;101860.75;;;23.72;45.66
3654;BME280;70277;54.302;10.064;2023-06-10T09:50:44;101858.34;;;23.93;44.92
3654;BME280;70277;54.302;10.064;2023-06-10T09:53:11;101854.28;;;24.13;44.77
3654;BME280;70277;54.302;10.064;2023-06-10T09:55:39;101854.38;;;24.44;44.68
3654;BME280;70277;54.302;10.064;2023-06-10T09:58:06;101862.75;;;25.24;42.89
3654;BME280;70277;54.302;10.064;2023-06-10T10:00:33;101860.25;;;25.88;41.33
3654;BME280;70277;54.302;10.064;2023-06-10T10:03:00;101857.84;;;25.21;42.12
3654;BME280;70277;54.302;10.064;2023-06-10T10:05:27;101855.13;;;24.58;42.90
3654;BME280;70277;54.302;10.064;2023-06-10T10:07:54;101849.16;;;24.73;43.96
3654;BME280;70277;54.302;10.064;2023-06-10T10:10:23;101867.19;;;25.42;42.06
3654;BME280;70277;54.302;10.064;2023-06-10T10:12:56;101870.78;;;25.42;42.52
3654;BME280;70277;54.302;10.064;2023-06-10T10:15:25;101865.00;;;26.05;41.15
3654;BME280;70277;54.302;10.064;2023-06-10T10:18:06;101854.53;;;26.10;41.17
3654;BME280;70277;54.302;10.064;2023-06-10T10:20:38;101866.59;;;25.80;41.45
3654;BME280;70277;54.302;10.064;2023-06-10T10:23:08;101865.78;;;26.14;41.07
3654;BME280;70277;54.302;10.064;2023-06-10T10:25:38;101870.38;;;25.84;40.75
3654;BME280;70277;54.302;10.064;2023-06-10T10:28:12;101869.53;;;25.75;41.96
3654;BME280;70277;54.302;10.064;2023-06-10T10:30:51;101866.78;;;26.18;40.51
3654;BME280;70277;54.302;10.064;2023-06-10T10:33:22;101863.47;;;25.64;41.43
3654;BME280;70277;54.302;10.064;2023-06-10T10:35:50;101856.19;;;25.85;41.01
3654;BME280;70277;54.302;10.064;2023-06-10T10:38:17;101860.88;;;25.10;42.38
3654;BME280;70277;54.302;10.064;2023-06-10T10:40:44;101865.75;;;25.53;41.91
3654;BME280;70277;54.302;10.064;2023-06-10T10:43:12;101861.69;;;25.11;42.22
3654;BME280;70277;54.302;10.064;2023-06-10T10:45:39;101869.34;;;24.74;43.40
3654;BME280;70277;54.302;10.064;2023-06-10T10:48:08;101873.16;;;26.01;41.17
3654;BME280;70277;54.302;10.064;2023-06-10T10:50:38;101857.31;;;26.02;40.87
3654;BME280;70277;54.302;10.064;2023-06-10T10:53:06;101872.13;;;26.32;40.47
3654;BME280;70277;54.302;10.064;2023-06-10T10:55:33;101863.13;;;26.44;40.38
3654;BME280;70277;54.302;10.064;2023-06-10T10:58:10;101864.63;;;25.72;41.76
3654;BME280;70277;54.302;10.064;2023-06-10T11:00:45;101870.53;;;26.14;40.85
3654;BME280;70277;54.302;10.064;2023-06-10T11:03:14;101869.44;;;26.79;40.38
3654;BME280;70277;54.302;10.064;2023-06-10T11:05:43;101863.91;;;27.17;38.50
3654;BME280;70277;54.302;10.064;2023-06-10T11:10:55;101863.59;;;27.10;38.95
3654;BME280;70277;54.302;10.064;2023-06-10T11:13:22;101873.91;;;26.71;39.36
3654;BME280;70277;54.302;10.064;2023-06-10T11:15:50;101872.91;;;26.67;39.57
3654;BME280;70277;54.302;10.064;2023-06-10T11:18:27;101860.03;;;26.63;39.38
3654;BME280;70277;54.302;10.064;2023-06-10T11:21:01;101856.28;;;26.59;39.59
3654;BME280;70277;54.302;10.064;2023-06-10T11:28:41;101861.63;;;27.70;37.79
3654;BME280;70277;54.302;10.064;2023-06-10T11:31:18;101864.72;;;26.71;39.13
3654;BME280;70277;54.302;10.064;2023-06-10T11:33:47;101862.50;;;27.62;37.73
3654;BME280;70277;54.302;10.064;2023-06-10T11:36:14;101853.19;;;27.37;38.30
3654;BME280;70277;54.302;10.064;2023-06-10T11:38:41;101859.25;;;27.00;39.49
3654;BME280;70277;54.302;10.064;2023-06-10T11:41:08;101855.19;;;27.57;38.47
3654;BME280;70277;54.302;10.064;2023-06-10T11:43:35;101856.94;;;28.04;37.28
3654;BME280;70277;54.302;10.064;2023-06-10T11:46:02;101843.69;;;28.55;36.32
3654;BME280;70277;54.302;10.064;2023-06-10T11:48:29;101850.13;;;28.34;36.57
3654;BME280;70277;54.302;10.064;2023-06-10T11:50:56;101856.03;;;27.79;37.49
3654;BME280;70277;54.302;10.064;2023-06-10T11:53:23;101844.28;;;27.22;38.44
3654;BME280;70277;54.302;10.064;2023-06-10T11:55:51;101856.91;;;26.64;39.06
3654;BME280;70277;54.302;10.064;2023-06-10T11:58:19;101862.00;;;27.39;38.91
3654;BME280;70277;54.302;10.064;2023-06-10T12:00:54;101847.72;;;27.49;38.06
3654;BME280;70277;54.302;10.064;2023-06-10T12:03:22;101855.66;;;28.22;37.46
3654;BME280;70277;54.302;10.064;2023-06-10T12:06:00;101843.56;;;28.51;36.68
3654;BME280;70277;54.302;10.064;2023-06-10T12:08:27;101837.84;;;27.81;37.35
3654;BME280;70277;54.302;10.064;2023-06-10T12:10:54;101846.72;;;27.24;37.97
3654;BME280;70277;54.302;10.064;2023-06-10T12:13:21;101852.09;;;27.80;38.02
3654;BME280;70277;54.302;10.064;2023-06-10T12:15:50;101848.72;;;27.44;38.17
3654;BME280;70277;54.302;10.064;2023-06-10T12:18:17;101854.63;;;27.64;38.01
3654;BME280;70277;54.302;10.064;2023-06-10T12:20:45;101845.63;;;27.67;38.03
3654;BME280;70277;54.302;10.064;2023-06-10T12:23:12;101852.97;;;27.93;37.74
3654;BME280;70277;54.302;10.064;2023-06-10T12:25:39;101859.84;;;28.62;36.31
3654;BME280;70277;54.302;10.064;2023-06-10T12:28:10;101850.81;;;28.77;35.94
3654;BME280;70277;54.302;10.064;2023-06-10T12:30:37;101863.97;;;28.43;36.53
3654;BME280;70277;54.302;10.064;2023-06-10T12:33:03;101855.56;;;29.01;35.93
3654;BME280;70277;54.302;10.064;2023-06-10T12:35:30;101845.63;;;29.24;35.57
3654;BME280;70277;54.302;10.064;2023-06-10T12:37:59;101855.97;;;29.24;35.10
3654;BME280;70277;54.302;10.064;2023-06-10T12:40:32;101850.16;;;29.05;35.19
3654;BME280;70277;54.302;10.064;2023-06-10T12:43:00;101848.72;;;28.74;36.14
3654;BME280;70277;54.302;10.064;2023-06-10T12:45:37;101846.81;;;28.53;36.53
3654;BME280;70277;54.302;10.064;2023-06-10T12:48:32;101843.44;;;29.83;34.87
3654;BME280;70277;54.302;10.064;2023-06-10T12:50:58;101848.88;;;29.27;35.48
3654;BME280;70277;54.302;10.064;2023-06-10T12:53:25;101840.72;;;28.85;36.24
3654;BME280;70277;54.302;10.064;2023-06-10T12:55:54;101837.00;;;28.80;36.39
3654;BME280;70277;54.302;10.064;2023-06-10T12:58:22;101840.78;;;27.55;37.81
3654;BME280;70277;54.302;10.064;2023-06-10T13:00:49;101843.91;;;27.54;38.26